Flight Track Log - Related Links

Times and Time Zones

All times are in EDT time to prevent confusion due to time zone crossing. See the N5232U flight status page for this flight to view local times or setup timezone preferences in your user account.

Time Position Orientation Groundspeed Altitude Reporting Facility
EDT Latitude Longitude Course Direction KTS MPH feet Rate Location/Type
Wed 01:35:09 PM 38.6333 -90.6667 72° East 125 144 5,400  Level Gateway (St. Louis) TRACON
Wed 01:37:03 PM 38.6500 -90.6000 72° East 128 147 5,500  Climbing Gateway (St. Louis) TRACON
Wed 01:38:09 PM 38.6667 -90.5333 72° East 132 152 5,400  Descending Gateway (St. Louis) TRACON
Wed 01:39:09 PM 38.6667 -90.5000 90° East 121 139 5,500 50 Climbing Gateway (St. Louis) TRACON
Wed 01:40:09 PM 38.6833 -90.4500 67° East 125 144 5,500 -56 Level Gateway (St. Louis) TRACON
Wed 01:40:57 PM 38.6833 -90.4167 90° East 131 151 5,400 -86 Descending Gateway (St. Louis) TRACON
Wed 01:41:19 PM 38.6892 -90.4067 53° Northeast 128 147 5,400  Level Kansas City Center
Wed 01:42:21 PM 38.6972 -90.3661 76° East 128 147 5,400 48 Level Kansas City Center
Wed 01:43:23 PM 38.7094 -90.3131 74° East 129 148 5,500 48 Climbing Kansas City Center
Wed 01:44:25 PM 38.7197 -90.2667 74° East 132 152 5,500 -48 Level Kansas City Center
Wed 01:45:27 PM 38.7297 -90.2214 74° East 133 153 5,400  Descending Kansas City Center
Wed 01:46:29 PM 38.7389 -90.1739 76° East 135 155 5,500 48 Climbing Kansas City Center
Wed 01:47:31 PM 38.7483 -90.1281 75° East 135 155 5,500 -48 Level Kansas City Center
Wed 01:48:33 PM 38.7578 -90.0831 75° East 133 153 5,400  Descending Kansas City Center
Wed 01:49:35 PM 38.7689 -90.0292 75° East 132 152 5,500  Climbing Kansas City Center
Wed 01:50:37 PM 38.7775 -89.9869 75° East 128 147 5,400 -48 Descending Kansas City Center
Wed 01:51:39 PM 38.7850 -89.9422 78° East 127 146 5,400  Level Kansas City Center
Wed 01:52:41 PM 38.7956 -89.8944 74° East 133 153 5,400  Level Kansas City Center
Wed 01:53:43 PM 38.8069 -89.8475 73° East 136 157 5,400 48 Level Kansas City Center
Wed 01:54:45 PM 38.8161 -89.8036 75° East 133 153 5,500 48 Climbing Kansas City Center
Wed 01:55:47 PM 38.8269 -89.7497 76° East 131 151 5,500  Level Kansas City Center
Wed 01:56:49 PM 38.8367 -89.7044 75° East 131 151 5,500 -48 Level Kansas City Center
Wed 01:57:51 PM 38.8464 -89.6544 76° East 132 152 5,400 -48 Descending Kansas City Center
Wed 01:58:53 PM 38.8550 -89.6097 76° East 130 150 5,400  Level Kansas City Center
Wed 01:59:55 PM 38.8647 -89.5622 75° East 128 147 5,400  Level Kansas City Center
Wed 02:00:57 PM 38.8742 -89.5164 75° East 131 151 5,400  Level Kansas City Center
Wed 02:01:59 PM 38.8833 -89.4681 76° East 130 150 5,400  Level Kansas City Center
Wed 02:03:01 PM 38.8931 -89.4242 74° East 129 148 5,400  Level Kansas City Center
Wed 02:04:03 PM 38.9031 -89.3800 74° East 129 148 5,400 -48 Level Kansas City Center
Wed 02:05:05 PM 38.9117 -89.3317 77° East 129 148 5,300  Descending Kansas City Center
Wed 02:06:07 PM 38.9203 -89.2861 76° East 132 152 5,400 48 Climbing Kansas City Center
Wed 02:07:09 PM 38.9308 -89.2378 74° East 130 150 5,400  Level Kansas City Center
Wed 02:08:11 PM 38.9397 -89.1942 75° East 127 146 5,400  Level Kansas City Center
Wed 02:09:13 PM 38.9489 -89.1469 76° East 127 146 5,400  Level Kansas City Center
Wed 02:10:15 PM 38.9583 -89.1028 75° East 127 146 5,400  Level Kansas City Center
Wed 02:11:17 PM 38.9669 -89.0592 76° East 126 145 5,400 -48 Level Kansas City Center
Wed 02:12:20 PM 38.9761 -89.0128 76° East 125 144 5,300  Descending Kansas City Center
Wed 02:13:22 PM 38.9853 -88.9692 75° East 126 145 5,400  Climbing Kansas City Center
Wed 02:14:24 PM 38.9969 -88.9222 72° East 130 150 5,300  Descending Kansas City Center
Wed 02:15:26 PM 39.0069 -88.8781 74° East 130 150 5,400 48 Climbing Kansas City Center
Wed 02:16:28 PM 39.0150 -88.8344 77° East 128 147 5,400  Level Kansas City Center
Wed 02:17:30 PM 39.0225 -88.7900 78° East 127 146 5,400  Level Kansas City Center
Wed 02:18:32 PM 39.0297 -88.7453 78° East 128 147 5,400  Level Kansas City Center
Wed 02:19:34 PM 39.0419 -88.6931 73° East 128 147 5,400  Level Kansas City Center
Wed 02:20:36 PM 39.0506 -88.6492 76° East 127 146 5,400  Level Kansas City Center
Wed 02:21:38 PM 39.0572 -88.6047 79° East 127 146 5,400 -48 Level Kansas City Center
Wed 02:22:40 PM 39.0639 -88.5597 79° East 127 146 5,300  Descending Kansas City Center
Wed 02:23:42 PM 39.0731 -88.5153 75° East 127 146 5,400 48 Climbing Kansas City Center
Wed 02:24:44 PM 39.0831 -88.4689 74° East 129 148 5,400  Level Kansas City Center
Wed 02:25:46 PM 39.0942 -88.4161 75° East 128 147 5,400 49 Level Kansas City Center
Wed 02:26:46 PM 39.1019 -88.3692 78° East 129 148 5,500 49 Climbing Indianapolis Center
Wed 02:27:48 PM 39.1108 -88.3228 76° East 130 150 5,500  Level Indianapolis Center
Wed 02:28:50 PM 39.1200 -88.2767 76° East 132 152 5,500  Level Indianapolis Center
Wed 02:29:54 PM 39.1283 -88.2336 76° East 130 150 5,500  Level Kansas City Center
Wed 02:30:56 PM 39.1367 -88.1881 77° East 129 148 5,500  Level Kansas City Center
Wed 02:31:58 PM 39.1456 -88.1442 75° East 128 147 5,500 -48 Level Kansas City Center
Wed 02:33:00 PM 39.1558 -88.0894 76° East 129 148 5,400  Descending Kansas City Center
Wed 02:34:02 PM 39.1642 -88.0464 76° East 128 147 5,500 48 Climbing Kansas City Center
Wed 02:35:04 PM 39.1722 -88.0006 77° East 128 147 5,500 -48 Level Kansas City Center
Wed 02:36:06 PM 39.1803 -87.9547 77° East 129 148 5,400 -48 Descending Kansas City Center
Wed 02:37:09 PM 39.1886 -87.9106 76° East 129 148 5,400 48 Level Kansas City Center
Wed 02:38:11 PM 39.1978 -87.8678 75° East 127 146 5,500  Climbing Kansas City Center
Wed 02:39:13 PM 39.2058 -87.8242 77° East 126 145 5,400  Descending Kansas City Center
Wed 02:40:13 PM 39.2106 -87.7797 82° East 124 143 5,500 49 Climbing Indianapolis Center
Wed 02:41:15 PM 39.2225 -87.7339 71° East 131 151 5,500 -48 Level Indianapolis Center
Wed 02:42:17 PM 39.2322 -87.6781 77° East 133 153 5,400  Descending Indianapolis Center
Wed 02:43:19 PM 39.2400 -87.6339 77° East 128 147 5,500 48 Climbing Indianapolis Center
Wed 02:44:21 PM 39.2481 -87.5897 77° East 128 147 5,500  Level Indianapolis Center
Wed 02:45:23 PM 39.2575 -87.5453 75° East 127 146 5,500 -48 Level Indianapolis Center
Wed 02:46:25 PM 39.2647 -87.4989 79° East 129 148 5,400  Descending Indianapolis Center
Wed 02:47:27 PM 39.2744 -87.4478 76° East 127 146 5,500  Climbing Indianapolis Center
Wed 02:48:29 PM 39.2847 -87.4036 73° East 127 146 5,400  Descending Indianapolis Center
Wed 02:49:31 PM 39.2903 -87.3597 81° East 126 145 5,500  Climbing Indianapolis Center
Wed 02:50:33 PM 39.2994 -87.3175 74° East 122 140 5,400 -48 Descending Indianapolis Center
Wed 02:51:35 PM 39.3069 -87.2731 78° East 125 144 5,400 48 Level Indianapolis Center
Wed 02:52:37 PM 39.3144 -87.2303 77° East 122 140 5,500 48 Climbing Indianapolis Center
Wed 02:53:39 PM 39.3228 -87.1872 76° East 122 140 5,500 48 Level Indianapolis Center
Wed 02:54:42 PM 39.3328 -87.1361 76° East 125 144 5,600  Climbing Indianapolis Center
Wed 02:55:44 PM 39.3386 -87.0917 80° East 124 143 5,500 -97 Descending Indianapolis Center
Wed 02:56:46 PM 39.3472 -87.0494 75° East 122 140 5,400 -48 Descending Indianapolis Center
Wed 02:57:48 PM 39.3553 -87.0094 75° East 116 133 5,400 97 Level Indianapolis Center
Wed 02:58:50 PM 39.3633 -86.9669 76° East 119 137 5,600 48 Climbing Indianapolis Center
Wed 02:59:52 PM 39.3708 -86.9203 78° East 127 146 5,500 -48 Descending Indianapolis Center
Wed 03:00:54 PM 39.3786 -86.8703 79° East 123 142 5,500  Level Indianapolis Center
Wed 03:01:56 PM 39.3872 -86.8283 75° East 120 138 5,500  Level Indianapolis Center
Wed 03:02:58 PM 39.3956 -86.7847 76° East 125 144 5,500  Level Indianapolis Center
Wed 03:04:00 PM 39.4028 -86.7400 78° East 125 144 5,500  Level Indianapolis Center
Wed 03:05:02 PM 39.4106 -86.6972 77° East 124 143 5,500  Level Indianapolis Center
Wed 03:06:04 PM 39.4178 -86.6539 78° East 122 140 5,500  Level Indianapolis Center
Wed 03:07:06 PM 39.4269 -86.6039 77° East 123 142 5,500  Level Indianapolis Center
Wed 03:08:08 PM 39.4331 -86.5611 80° East 121 139 5,500 -48 Level Indianapolis Center
Wed 03:09:10 PM 39.4428 -86.5153 75° East 129 148 5,400 -48 Descending Indianapolis Center
Wed 03:10:12 PM 39.4494 -86.4697 79° East 128 147 5,400 97 Level Indianapolis Center
Wed 03:11:14 PM 39.4575 -86.4272 76° East 124 143 5,600 97 Climbing Indianapolis Center
Wed 03:12:16 PM 39.4667 -86.3817 75° East 128 147 5,600  Level Indianapolis Center
Wed 03:13:18 PM 39.4758 -86.3281 77° East 131 151 5,600 -48 Level Indianapolis Center
Wed 03:14:20 PM 39.4828 -86.2836 79° East 127 146 5,500  Descending Indianapolis Center
Wed 03:15:23 PM 39.4900 -86.2386 78° East 127 146 5,600  Climbing Indianapolis Center
Wed 03:16:25 PM 39.4983 -86.1928 77° East 130 150 5,500 -48 Descending Indianapolis Center
Wed 03:17:27 PM 39.5078 -86.1472 75° East 131 151 5,500  Level Indianapolis Center
Wed 03:18:29 PM 39.5147 -86.1031 78° East 127 146 5,500  Level Indianapolis Center
Wed 03:19:31 PM 39.5244 -86.0508 76° East 127 146 5,500  Level Indianapolis Center
Wed 03:20:33 PM 39.5319 -86.0056 78° East 128 147 5,500  Level Indianapolis Center
Wed 03:21:35 PM 39.5381 -85.9625 80° East 124 143 5,500  Level Indianapolis Center
Wed 03:22:37 PM 39.5458 -85.9197 77° East 123 142 5,500  Level Indianapolis Center
Wed 03:23:39 PM 39.5533 -85.8758 77° East 123 142 5,500  Level Indianapolis Center
Wed 03:24:41 PM 39.5600 -85.8306 79° East 125 144 5,500  Level Indianapolis Center
Wed 03:25:43 PM 39.5683 -85.7803 78° East 124 143 5,500  Level Indianapolis Center
Wed 03:26:45 PM 39.5758 -85.7369 77° East 123 142 5,500  Level Indianapolis Center
Wed 03:27:47 PM 39.5828 -85.6936 78° East 123 142 5,500 48 Level Indianapolis Center
Wed 03:28:49 PM 39.5906 -85.6503 77° East 122 140 5,600  Climbing Indianapolis Center
Wed 03:29:51 PM 39.5972 -85.6078 78° East 122 140 5,500 -48 Descending Indianapolis Center
Wed 03:30:53 PM 39.6047 -85.5647 77° East 121 139 5,500 -48 Level Indianapolis Center
Wed 03:31:55 PM 39.6128 -85.5139 78° East 122 140 5,400  Descending Indianapolis Center
Wed 03:32:57 PM 39.6203 -85.4714 77° East 122 140 5,500 48 Climbing Indianapolis Center
Wed 03:33:59 PM 39.6281 -85.4281 77° East 122 140 5,500  Level Indianapolis Center
Wed 03:35:01 PM 39.6347 -85.3847 79° East 122 140 5,500 -48 Level Indianapolis Center
Wed 03:36:04 PM 39.6417 -85.3403 79° East 123 142 5,400 73 Descending Indianapolis Center
Wed 03:36:23 PM 39.6447 -85.3200 79° East 121 139 5,600 97 Climbing Indianapolis Center
Wed 03:37:06 PM 39.6464 -85.2961 85° East 124 143 5,500  Descending Indianapolis Center
Wed 03:37:24 PM 39.6486 -85.2772 81° East 123 142 5,600 -97 Climbing Indianapolis Center
Wed 03:38:08 PM 39.6561 -85.2453 73° East 123 142 5,400 -98 Descending Indianapolis Center
Wed 03:38:25 PM 39.6586 -85.2325 76° East 125 144 5,500  Climbing Indianapolis Center
Wed 03:39:10 PM 39.6644 -85.2003 77° East 126 145 5,400 100 Descending Indianapolis Center
Wed 03:39:25 PM 39.6669 -85.1875 76° East 128 147 5,600  Climbing Indianapolis Center
Wed 03:40:12 PM 39.6711 -85.1561 80° East 125 144 5,400 -55 Descending Indianapolis Center
Wed 03:41:14 PM 39.6794 -85.1125 76° East 124 143 5,500 148 Climbing Indianapolis Center
Wed 03:41:33 PM 39.6811 -85.0947 83° East 123 142 5,600  Climbing Indianapolis Center
Wed 03:42:16 PM 39.6858 -85.0686 77° East 124 143 5,500  Descending Indianapolis Center
Wed 03:42:34 PM 39.6892 -85.0522 75° East 125 144 5,600 -97 Climbing Indianapolis Center
Wed 03:43:18 PM 39.6925 -85.0242 81° East 125 144 5,400 -98 Descending Indianapolis Center
Wed 03:43:35 PM 39.6950 -85.0069 79° East 123 142 5,500 97 Climbing Indianapolis Center
Wed 03:44:20 PM 39.6989 -84.9822 78° East 122 140 5,500  Level Indianapolis Center
Wed 03:44:36 PM 39.7028 -84.9675 71° East 118 136 5,500 -97 Level Indianapolis Center
Wed 03:45:22 PM 39.7069 -84.9331 81° East 119 137 5,400  Descending Indianapolis Center
Wed 03:46:24 PM 39.7147 -84.8903 77° East 120 138 5,500 48 Climbing Indianapolis Center
Wed 03:47:26 PM 39.7203 -84.8519 79° East 119 137 5,500  Level Indianapolis Center
Wed 03:47:44 PM 39.7225 -84.8344 81° East 121 139 5,500 82 Level Indianapolis Center
Wed 03:48:39 PM 39.7319 -84.7950 73° East 122 140 5,600 -57 Climbing Indianapolis Center
Wed 03:49:30 PM 39.7375 -84.7594 79° East 120 138 5,400 -90 Descending Indianapolis Center
Wed 03:49:46 PM 39.7403 -84.7472 74° East 119 137 5,500 97 Climbing Indianapolis Center
Wed 03:50:32 PM 39.7439 -84.7175 81° East 118 136 5,500  Level Indianapolis Center
Wed 03:51:34 PM 39.7500 -84.6728 80° East 122 140 5,500 -48 Level Indianapolis Center
Wed 03:52:36 PM 39.7561 -84.6294 80° East 122 140 5,400  Descending Indianapolis Center
Wed 03:53:38 PM 39.7606 -84.5889 82° East 115 132 5,500  Climbing Indianapolis Center
Wed 03:54:40 PM 39.7678 -84.5461 78° East 119 137 5,400  Descending Indianapolis Center
Wed 03:55:42 PM 39.7761 -84.4958 78° East 122 140 5,500  Climbing Indianapolis Center
Wed 03:56:44 PM 39.7833 -84.4508 78° East 125 144 5,400 -48 Descending Indianapolis Center
Wed 03:57:47 PM 39.7900 -84.4092 78° East 119 137 5,400 51 Level Indianapolis Center
Wed 03:58:42 PM 39.7964 -84.3692 78° East 119 137 5,500  Climbing Indianapolis Center
Wed 03:59:42 PM 39.8039 -84.3269 77° East 117 135 5,400 -46 Descending Indianapolis Center
Wed 04:00:53 PM 39.8100 -84.2825 80° East 118 136 5,400 47 Level Indianapolis Center
Wed 04:01:50 PM 39.8153 -84.2358 82° East 117 135 5,500 51 Climbing Indianapolis Center
Wed 04:02:51 PM 39.8228 -84.1961 76° East 116 133 5,500  Level Indianapolis Center
Wed 04:03:52 PM 39.8281 -84.1533 81° East 122 140 5,500 -362 Level Indianapolis Center
Wed 04:04:47 PM 39.8336 -84.1106 80° East 138 159 4,800 -724 Descending Indianapolis Center
Wed 04:05:48 PM 39.8436 -84.0631 75° East 142 163 4,100 -553 Descending Indianapolis Center
Wed 04:06:03 PM 39.8439 -84.0492 89° East 137 158 4,100 -492 Level Indianapolis Center
Wed 04:06:49 PM 39.8514 -84.0150 74° East 136 157 3,600 -581 Descending Indianapolis Center
Wed 04:07:05 PM 39.8539 -84.0019 76° East 137 158 3,500 -197 Descending Indianapolis Center
Wed 04:07:50 PM 39.8611 -83.9703 73° East 123 142 3,400 -97 Descending Indianapolis Center
Wed 04:08:07 PM 39.8664 -83.9669 26° Northeast 132 152 3,400 100 Level Indianapolis Center
Wed 04:08:50 PM 39.8972 -83.9639 North 130 150 3,500  Climbing Indianapolis Center
Wed 04:09:09 PM 39.9025 -83.9611 22° Northeast 129 148 3,400 -393 Descending Indianapolis Center
Wed 04:09:51 PM 39.9319 -83.9494 17° North 129 148 3,100 -484 Descending Indianapolis Center
Wed 04:10:11 PM 39.9431 -83.9433 23° Northeast 130 150 2,900 -448 Descending Indianapolis Center
Wed 04:10:58 PM 39.9692 -83.9269 26° Northeast 136 157 2,600 -290 Descending Indianapolis Center
Wed 04:11:13 PM 39.9781 -83.9239 15° North 133 153 2,600 -109 Level Indianapolis Center
Wed 04:11:53 PM 40.0019 -83.9394 333° Northwest 132 152 2,500 -97 Descending Indianapolis Center
Wed 04:12:15 PM 40.0111 -83.9283 43° Northeast 139 160 2,500  Level Indianapolis Center
Wed 04:12:54 PM 40.0303 -83.9239 10° North 128 147 2,500 -95 Level Indianapolis Center
Wed 04:13:18 PM 40.0239 -83.9347 232° Southwest 146 168 2,400 -98 Descending Indianapolis Center
Wed 04:13:55 PM 40.0128 -83.9325 171° South 117 135 2,400 97 Level Indianapolis Center
Wed 04:14:20 PM 40.0197 -83.9225 48° Northeast 120 138 2,500 90 Climbing Indianapolis Center
Wed 04:15:02 PM 40.0150 -83.9328 239° Southwest 120 138 2,500  Level Indianapolis Center
Wed 04:15:22 PM 40.0183 -83.9200 71° East 120 138 2,500 -109 Level Indianapolis Center
Wed 04:15:57 PM 40.0192 -83.9333 275° West 134 154 2,400 -97 Descending Indianapolis Center
Wed 04:16:24 PM 40.0100 -83.9289 160° South 115 132 2,400 90 Level Indianapolis Center
Wed 04:17:04 PM 40.0028 -83.9014 109° East 105 121 2,500 194 Climbing Indianapolis Center
Wed 04:17:26 PM 40.0022 -83.8925 95° East 105 121 2,600  Climbing Indianapolis Center
Wed 04:17:59 PM 40.0008 -83.8683 94° East 102 117 2,500 -194 Descending Indianapolis Center
Wed 04:18:28 PM 39.9986 -83.8464 98° East 106 122 2,400  Descending Indianapolis Center
Wed 04:19:00 PM 39.9958 -83.8269 101° East 111 128 2,500 290 Climbing Indianapolis Center
Wed 04:19:30 PM 39.9936 -83.8072 98° East 108 124 2,700  Climbing Indianapolis Center
Wed 04:20:01 PM 39.9922 -83.7883 95° East 110 127 2,500 -290 Descending Indianapolis Center
Wed 04:20:32 PM 39.9906 -83.7656 95° East 111 128 2,400 -90 Descending Indianapolis Center
Wed 04:21:08 PM 39.9878 -83.7386 98° East 116 133 2,400 97 Level Indianapolis Center
Wed 04:21:34 PM 39.9878 -83.7244 90° East 113 130 2,500 98 Climbing Indianapolis Center
Wed 04:22:09 PM 39.9864 -83.7003 94° East 109 125 2,500  Level Indianapolis Center
Wed 04:22:36 PM 39.9844 -83.6850 99° East 110 127 2,500 109 Level Indianapolis Center
Wed 04:23:04 PM 39.9808 -83.6617 101° East 116 133 2,600  Climbing Indianapolis Center
Wed 04:23:38 PM 39.9808 -83.6425 90° East 113 130 2,500 -197 Descending Indianapolis Center
Wed 04:24:05 PM 39.9778 -83.6178 99° East 121 139 2,400  Descending Indianapolis Center
Wed 04:24:40 PM 39.9772 -83.5992 92° East 117 135 2,500 90 Climbing Indianapolis Center
Wed 04:25:12 PM 39.9747 -83.5736 97° East 109 125 2,500  Level Indianapolis Center
Wed 04:25:42 PM 39.9736 -83.5506 94° East 115 132 2,500  Level Indianapolis Center
Wed 04:26:12 PM 39.9717 -83.5297 97° East 120 138 2,500  Level Indianapolis Center
Wed 04:26:44 PM 39.9694 -83.5072 97° East 117 135 2,500 -98 Level Indianapolis Center
Wed 04:27:13 PM 39.9664 -83.4856 100° East 119 137 2,400 97 Descending Indianapolis Center
Wed 04:27:46 PM 39.9647 -83.4642 96° East 118 136 2,600 98 Climbing Indianapolis Center
Wed 04:28:14 PM 39.9611 -83.4442 103° East 118 136 2,500 -97 Descending Indianapolis Center
Wed 04:28:48 PM 39.9561 -83.4217 106° East 119 137 2,500 -98 Level Indianapolis Center
Wed 04:29:15 PM 39.9494 -83.4019 114° Southeast 120 138 2,400 -97 Descending Indianapolis Center
Wed 04:29:50 PM 39.9461 -83.3825 103° East 119 137 2,400  Level Indianapolis Center

Login

Don't have an account? Register now (free) for customized features, flight alerts, and more!